createdAt,value
2023-04-16T00:01:30.520Z,18.90
2023-04-16T00:04:01.199Z,16.30
2023-04-16T00:06:53.156Z,19.80
2023-04-16T00:10:02.385Z,24.10
2023-04-16T00:13:05.978Z,22.50
2023-04-16T00:16:15.635Z,22.10
2023-04-16T00:19:12.179Z,24.50
2023-04-16T00:22:17.932Z,25.30
2023-04-16T00:25:34.794Z,25.70
2023-04-16T00:28:19.518Z,29.90
2023-04-16T00:30:50.480Z,32.10
2023-04-16T00:34:21.104Z,29.20
2023-04-16T00:37:30.557Z,32.40
2023-04-16T00:41:05.045Z,27.10
2023-04-16T00:44:26.904Z,27.80
2023-04-16T00:47:31.858Z,25.50
2023-04-16T00:50:59.741Z,26.30
2023-04-16T00:53:43.815Z,25.60
2023-04-16T00:56:20.878Z,22.10
2023-04-16T00:59:17.357Z,23.10
2023-04-16T01:01:46.667Z,19.70
2023-04-16T01:04:16.328Z,18.40
2023-04-16T01:06:45.062Z,19.40
2023-04-16T01:09:15.484Z,20.00
2023-04-16T01:11:44.192Z,18.40
2023-04-16T01:14:44.633Z,19.50
2023-04-16T01:17:15.944Z,20.00
2023-04-16T01:20:05.430Z,18.20
2023-04-16T01:22:54.996Z,19.10
2023-04-16T01:25:25.827Z,20.50
2023-04-16T01:28:08.845Z,20.00
2023-04-16T01:31:03.616Z,20.20
2023-04-16T01:33:56.298Z,18.30
2023-04-16T01:36:25.656Z,19.20
2023-04-16T01:39:08.094Z,19.00
2023-04-16T01:41:41.759Z,17.00
2023-04-16T01:44:13.983Z,18.70
2023-04-16T01:46:45.771Z,18.90
2023-04-16T01:50:35.788Z,18.80
2023-04-16T01:53:33.834Z,18.00
2023-04-16T01:59:48.182Z,18.20
2023-04-16T02:02:30.790Z,16.40
2023-04-16T02:05:46.166Z,16.30
2023-04-16T02:09:30.728Z,15.50
2023-04-16T02:12:16.550Z,15.30
2023-04-16T02:15:06.009Z,15.60
2023-04-16T02:18:30.376Z,17.40
2023-04-16T02:21:34.094Z,16.10
2023-04-16T02:25:02.470Z,17.10
2023-04-16T02:28:35.536Z,17.10
2023-04-16T02:31:35.850Z,18.00
2023-04-16T02:35:17.698Z,15.50
2023-04-16T02:38:11.086Z,20.30
2023-04-16T02:41:56.140Z,15.00
2023-04-16T02:44:25.149Z,14.50
2023-04-16T02:48:20.272Z,14.30
2023-04-16T02:52:15.551Z,14.60
2023-04-16T02:54:45.464Z,14.80
2023-04-16T02:57:39.050Z,17.10
2023-04-16T03:00:24.738Z,16.50
2023-04-16T03:03:31.853Z,16.00
2023-04-16T03:06:55.226Z,15.50
2023-04-16T03:09:44.450Z,16.00
2023-04-16T03:12:57.774Z,14.00
2023-04-16T03:16:00.257Z,13.80
2023-04-16T03:18:44.299Z,15.30
2023-04-16T03:21:50.936Z,13.40
2023-04-16T03:24:34.684Z,14.50
2023-04-16T03:27:04.885Z,14.00
2023-04-16T03:29:34.034Z,15.10
2023-04-16T03:32:02.838Z,14.70
2023-04-16T03:34:33.256Z,14.80
2023-04-16T03:37:57.980Z,15.30
2023-04-16T03:40:33.494Z,15.70
2023-04-16T03:43:02.762Z,15.80
2023-04-16T03:45:49.318Z,16.20
2023-04-16T03:49:12.582Z,17.00
2023-04-16T03:51:50.155Z,16.60
2023-04-16T03:54:21.312Z,17.10
2023-04-16T03:56:54.496Z,16.80
2023-04-16T03:59:22.975Z,17.30
2023-04-16T04:01:52.458Z,18.00
2023-04-16T04:04:21.500Z,16.30
2023-04-16T04:06:50.271Z,16.30
2023-04-16T04:09:21.202Z,19.50
2023-04-16T04:11:52.359Z,18.00
2023-04-16T04:14:21.446Z,16.40
2023-04-16T04:16:50.234Z,17.40
2023-04-16T04:19:19.025Z,16.90
2023-04-16T04:21:47.801Z,17.60
2023-04-16T04:24:18.016Z,19.20
2023-04-16T04:26:47.219Z,18.30
2023-04-16T04:29:16.542Z,16.90
2023-04-16T04:31:45.905Z,17.00
2023-04-16T04:34:14.807Z,15.60
2023-04-16T04:36:43.609Z,16.00
2023-04-16T04:39:15.355Z,17.30
2023-04-16T04:41:44.780Z,15.60
2023-04-16T04:44:13.491Z,16.50
2023-04-16T04:46:43.161Z,16.00
2023-04-16T04:49:11.841Z,17.50
2023-04-16T04:51:40.946Z,18.40
2023-04-16T04:54:09.753Z,17.10
2023-04-16T04:56:46.413Z,15.40
2023-04-16T04:59:15.286Z,17.70
2023-04-16T05:01:43.866Z,16.30
2023-04-16T05:04:12.851Z,17.30
2023-04-16T05:06:41.749Z,18.90
2023-04-16T05:09:14.433Z,17.10
2023-04-16T05:11:43.231Z,14.70
2023-04-16T05:14:12.343Z,16.10
2023-04-16T05:16:41.223Z,14.00
2023-04-16T05:19:10.383Z,16.30
2023-04-16T05:21:39.205Z,14.00
2023-04-16T05:24:07.875Z,17.00
2023-04-16T05:26:36.494Z,16.80
2023-04-16T05:29:05.352Z,15.60
2023-04-16T05:31:33.940Z,15.60
2023-04-16T05:34:03.176Z,16.70
2023-04-16T05:36:31.819Z,15.00
2023-04-16T05:39:00.622Z,15.30
2023-04-16T05:41:29.651Z,16.80
2023-04-16T05:43:58.922Z,18.80
2023-04-16T05:46:27.729Z,15.90
2023-04-16T05:48:56.379Z,15.50
2023-04-16T05:51:26.587Z,15.70
2023-04-16T05:54:01.944Z,15.30
2023-04-16T05:56:38.564Z,15.90
2023-04-16T05:59:08.612Z,16.40
2023-04-16T06:01:37.423Z,16.40
2023-04-16T06:04:06.596Z,16.30
2023-04-16T06:07:20.258Z,15.30
2023-04-16T06:09:49.057Z,15.40
2023-04-16T06:12:49.979Z,16.10
2023-04-16T06:15:18.973Z,17.20
2023-04-16T06:17:47.734Z,17.30
2023-04-16T06:20:16.762Z,16.50
2023-04-16T06:22:45.356Z,16.60
2023-04-16T06:26:31.029Z,17.90
2023-04-16T06:29:50.909Z,16.50
2023-04-16T06:32:19.726Z,16.40
2023-04-16T06:34:55.413Z,15.40
2023-04-16T06:37:24.546Z,16.90
2023-04-16T06:40:16.107Z,18.80
2023-04-16T06:43:45.621Z,21.10
2023-04-16T06:46:17.165Z,20.80
2023-04-16T06:49:49.982Z,20.20
2023-04-16T06:52:48.504Z,15.40
2023-04-16T06:56:09.761Z,15.80
2023-04-16T06:58:39.289Z,14.80
2023-04-16T07:01:08.566Z,17.40
2023-04-16T07:04:20.089Z,14.70
2023-04-16T07:06:50.107Z,13.20
2023-04-16T07:09:18.517Z,17.30
2023-04-16T07:12:01.041Z,16.00
2023-04-16T07:14:40.151Z,15.30
2023-04-16T07:17:34.843Z,14.30
2023-04-16T07:20:11.560Z,14.30
2023-04-16T07:22:40.215Z,16.00
2023-04-16T07:25:09.830Z,15.50
2023-04-16T07:27:38.710Z,15.10
2023-04-16T07:30:16.414Z,12.60
2023-04-16T07:32:45.126Z,14.20
2023-04-16T07:35:14.187Z,13.30
2023-04-16T07:44:33.734Z,14.20
2023-04-16T07:55:43.622Z,12.40
2023-04-16T07:58:43.734Z,11.90
2023-04-16T08:01:14.040Z,13.40
2023-04-16T08:04:54.845Z,12.80
2023-04-16T08:07:29.782Z,13.10
2023-04-16T08:09:58.458Z,13.00
2023-04-16T08:12:29.163Z,12.40
2023-04-16T08:14:57.783Z,11.90
2023-04-16T08:17:26.501Z,12.70
2023-04-16T08:21:11.735Z,12.40
2023-04-16T08:23:42.549Z,14.60
2023-04-16T08:26:11.882Z,14.10
2023-04-16T10:18:31.274Z,10.80
2023-04-16T10:21:00.292Z,9.20
2023-04-16T10:24:02.528Z,9.70
2023-04-16T10:27:06.398Z,8.10
2023-04-16T10:30:01.098Z,7.90
2023-04-16T10:32:34.814Z,7.90
2023-04-16T10:35:05.641Z,7.40
2023-04-16T10:37:34.326Z,8.20
2023-04-16T10:40:23.768Z,7.80
2023-04-16T10:42:59.790Z,8.10
2023-04-16T10:45:48.869Z,8.20
2023-04-16T10:48:21.034Z,7.80
2023-04-16T10:50:59.034Z,8.20
2023-04-16T10:53:28.955Z,7.40
2023-04-16T10:56:28.252Z,8.60
2023-04-16T10:58:56.759Z,9.40
2023-04-16T11:01:45.107Z,7.20
2023-04-16T11:04:40.294Z,8.40
2023-04-16T11:07:20.882Z,8.20
2023-04-16T11:10:05.440Z,8.50
2023-04-16T11:12:39.240Z,8.50
2023-04-16T11:15:20.001Z,7.90
2023-04-16T11:17:54.612Z,8.80
2023-04-16T11:20:26.175Z,9.20
2023-04-16T11:22:57.159Z,10.40
2023-04-16T11:25:30.150Z,10.80
2023-04-16T11:29:14.049Z,12.00
2023-04-16T11:32:37.645Z,10.40
2023-04-16T11:36:04.444Z,10.60
2023-04-16T11:38:39.242Z,9.70
2023-04-16T11:41:08.083Z,9.70
2023-04-16T11:44:51.919Z,8.50
2023-04-16T11:47:21.657Z,10.20
2023-04-16T11:49:51.017Z,10.40
2023-04-16T11:52:46.055Z,10.70
2023-04-16T11:55:15.699Z,9.70
2023-04-16T11:57:44.446Z,10.30
2023-04-16T12:00:15.399Z,10.90
2023-04-16T12:02:52.045Z,12.50
2023-04-16T12:05:39.408Z,13.70
2023-04-16T12:08:10.280Z,13.60
2023-04-16T12:10:54.822Z,12.90
2023-04-16T12:13:26.861Z,15.90
2023-04-16T12:15:57.553Z,12.60
2023-04-16T12:18:29.363Z,16.30
2023-04-16T12:21:00.001Z,17.80
2023-04-16T12:23:33.760Z,17.00
2023-04-16T12:29:28.056Z,19.70
2023-04-16T12:34:53.780Z,22.50
2023-04-16T12:37:32.747Z,50.60
2023-04-16T12:40:03.253Z,63.20
2023-04-16T12:42:36.183Z,67.30
2023-04-16T12:45:06.433Z,76.70
2023-04-16T12:47:35.240Z,84.50
2023-04-16T12:50:04.861Z,78.10
2023-04-16T12:52:34.496Z,81.10
2023-04-16T12:55:03.668Z,73.10
2023-04-16T12:57:32.251Z,81.90
2023-04-16T13:00:02.375Z,84.90
2023-04-16T13:02:32.416Z,87.00
2023-04-16T13:05:01.902Z,83.60
2023-04-16T13:07:32.522Z,99.70
2023-04-16T13:10:02.065Z,92.30
2023-04-16T13:12:38.319Z,93.90
2023-04-16T13:15:31.513Z,83.20
2023-04-16T13:18:01.577Z,93.20
2023-04-16T13:20:33.449Z,93.20
2023-04-16T13:23:05.344Z,89.00
2023-04-16T13:25:35.830Z,94.50
2023-04-16T13:28:05.689Z,96.00
2023-04-16T13:30:36.369Z,97.80
2023-04-16T13:33:06.934Z,101.60
2023-04-16T13:35:36.123Z,97.60
2023-04-16T13:38:05.575Z,88.10
2023-04-16T13:40:34.335Z,104.20
2023-04-16T13:43:02.964Z,105.60
2023-04-16T13:45:32.468Z,103.40
2023-04-16T13:48:01.289Z,113.30
2023-04-16T13:54:09.294Z,107.80
2023-04-16T13:56:38.372Z,114.40
2023-04-16T13:59:18.150Z,110.30
2023-04-16T14:01:57.861Z,109.40
2023-04-16T14:04:50.611Z,113.70
2023-04-16T14:07:21.872Z,117.70
2023-04-16T14:10:16.044Z,115.80
2023-04-16T14:12:48.219Z,117.70
2023-04-16T14:15:17.510Z,100.40
2023-04-16T14:17:49.603Z,102.50
2023-04-16T14:20:18.268Z,98.60
2023-04-16T14:22:47.161Z,96.30
2023-04-16T14:25:16.452Z,91.60
2023-04-16T14:27:52.515Z,84.90
2023-04-16T14:30:46.698Z,86.60
2023-04-16T14:33:26.428Z,91.40
2023-04-16T14:36:03.196Z,86.70
2023-04-16T14:38:32.857Z,88.90
2023-04-16T14:41:01.925Z,100.90
2023-04-16T14:43:55.593Z,103.10
2023-04-16T14:46:25.467Z,104.50
2023-04-16T14:48:54.196Z,97.50
2023-04-16T14:51:22.875Z,85.90
2023-04-16T14:53:51.702Z,97.00
2023-04-16T14:56:20.460Z,94.90
2023-04-16T14:58:49.041Z,96.90
2023-04-16T15:01:43.545Z,94.60
2023-04-16T15:04:39.557Z,104.80
2023-04-16T15:07:08.601Z,98.20
2023-04-16T15:10:07.551Z,101.10
2023-04-16T15:12:36.027Z,100.10
2023-04-16T15:15:07.098Z,100.10
2023-04-16T15:17:36.221Z,104.60
2023-04-16T15:20:11.167Z,102.30
2023-04-16T15:22:40.618Z,96.70
2023-04-16T15:25:09.534Z,97.70
2023-04-16T15:27:39.475Z,93.70
2023-04-16T15:30:08.936Z,94.60
2023-04-16T15:32:37.430Z,98.60
2023-04-16T15:35:07.559Z,103.80
2023-04-16T15:37:37.731Z,98.90
2023-04-16T15:40:08.708Z,102.50
2023-04-16T15:42:37.570Z,104.80
2023-04-16T15:45:06.862Z,109.50
2023-04-16T15:47:37.545Z,107.20
2023-04-16T15:50:08.822Z,104.70
2023-04-16T15:52:39.955Z,106.60
2023-04-16T15:55:09.599Z,107.00
2023-04-16T15:57:38.388Z,106.50
2023-04-16T16:00:17.611Z,110.00
2023-04-16T16:02:47.682Z,99.70
2023-04-16T16:05:17.135Z,108.70
2023-04-16T16:07:45.702Z,106.60
2023-04-16T16:13:49.355Z,95.30
2023-04-16T16:16:18.281Z,100.50
2023-04-16T16:18:47.658Z,100.60
2023-04-16T16:21:16.531Z,98.20
2023-04-16T16:23:45.260Z,98.00
2023-04-16T16:26:14.014Z,104.40
2023-04-16T16:32:17.552Z,105.00
2023-04-16T16:34:46.119Z,109.70
2023-04-16T16:37:22.486Z,116.50
2023-04-16T16:39:52.640Z,97.20
2023-04-16T16:42:21.077Z,91.80
2023-04-16T16:44:49.964Z,97.30
2023-04-16T16:47:44.495Z,94.20
2023-04-16T16:50:13.144Z,109.10
2023-04-16T16:52:42.034Z,109.80
2023-04-16T16:55:11.362Z,110.90
2023-04-16T16:57:41.558Z,114.40
2023-04-16T17:00:15.433Z,94.00
2023-04-16T17:02:44.603Z,115.50
2023-04-16T17:05:13.787Z,102.00
2023-04-16T17:07:44.392Z,115.30
2023-04-16T17:10:20.327Z,118.30
2023-04-16T17:12:49.738Z,109.40
2023-04-16T17:15:21.130Z,103.00
2023-04-16T17:17:50.683Z,87.90
2023-04-16T17:20:20.234Z,69.10
2023-04-16T17:22:48.820Z,79.50
2023-04-16T17:25:17.381Z,76.10
2023-04-16T17:27:47.908Z,74.10
2023-04-16T17:30:17.429Z,81.30
2023-04-16T17:32:45.813Z,67.80
2023-04-16T17:35:14.983Z,71.10
2023-04-16T17:38:36.045Z,64.40
2023-04-16T17:41:05.812Z,71.10
2023-04-16T17:43:34.392Z,65.30
2023-04-16T17:46:28.191Z,73.30
2023-04-16T17:48:58.087Z,64.50
2023-04-16T17:51:27.687Z,65.60
2023-04-16T17:53:56.373Z,72.00
2023-04-16T17:56:25.157Z,63.10
2023-04-16T17:58:53.641Z,70.40
2023-04-16T18:01:22.506Z,80.00
2023-04-16T18:03:51.672Z,71.70
2023-04-16T18:06:20.415Z,65.60
2023-04-16T18:08:48.786Z,72.60
2023-04-16T18:11:23.318Z,67.00
2023-04-16T18:13:54.276Z,67.10
2023-04-16T18:16:23.114Z,76.40
2023-04-16T18:18:51.521Z,58.80
2023-04-16T18:21:20.008Z,75.20
2023-04-16T18:23:48.687Z,79.70
2023-04-16T18:26:20.450Z,78.30
2023-04-16T18:28:49.672Z,70.00
2023-04-16T18:31:21.199Z,69.90
2023-04-16T18:33:57.218Z,74.20
2023-04-16T18:36:27.598Z,85.10
2023-04-16T18:39:01.706Z,67.70
2023-04-16T18:41:31.599Z,81.30
2023-04-16T18:44:00.519Z,95.10
2023-04-16T18:46:57.448Z,82.30
2023-04-16T18:49:28.793Z,99.20
2023-04-16T18:51:57.714Z,89.50
2023-04-16T18:54:26.400Z,87.20
2023-04-16T18:57:04.068Z,91.80
2023-04-16T18:59:32.873Z,94.00
2023-04-16T19:02:01.771Z,87.40
2023-04-16T19:04:30.815Z,93.20
2023-04-16T19:07:00.237Z,72.10
2023-04-16T19:09:28.831Z,84.00
2023-04-16T19:11:59.168Z,92.70
2023-04-16T19:14:28.612Z,90.20
2023-04-16T19:16:58.802Z,84.00
2023-04-16T19:19:27.772Z,86.10
2023-04-16T19:21:56.591Z,87.10
2023-04-16T19:24:25.862Z,91.80
2023-04-16T19:26:54.341Z,81.80
2023-04-16T19:29:23.335Z,84.30
2023-04-16T19:31:52.238Z,92.60
2023-04-16T19:34:20.972Z,91.40
2023-04-16T19:36:49.726Z,80.40
2023-04-16T19:39:18.481Z,90.30
2023-04-16T19:41:47.082Z,98.70
2023-04-16T19:44:16.237Z,88.70
2023-04-16T19:46:44.844Z,90.60
2023-04-16T19:49:13.621Z,90.30
2023-04-16T19:51:42.453Z,69.70
2023-04-16T19:54:11.220Z,72.30
2023-04-16T19:56:39.690Z,79.10
2023-04-16T19:59:08.176Z,92.60
2023-04-16T20:01:37.427Z,85.50
2023-04-16T20:04:07.317Z,89.50
2023-04-16T20:06:36.181Z,84.50
2023-04-16T20:09:05.282Z,91.60
2023-04-16T20:11:59.145Z,85.30
2023-04-16T20:14:27.732Z,78.40
2023-04-16T20:16:56.241Z,76.30
2023-04-16T20:19:31.657Z,67.50
2023-04-16T20:22:00.743Z,68.00
2023-04-16T20:24:31.314Z,68.60
2023-04-16T20:27:00.056Z,64.30
2023-04-16T20:29:31.893Z,65.10
2023-04-16T20:32:06.054Z,61.70
2023-04-16T20:34:34.738Z,67.00
2023-04-16T20:37:03.304Z,50.40
2023-04-16T20:39:34.230Z,56.40
2023-04-16T20:42:04.508Z,62.10
2023-04-16T20:44:40.590Z,48.70
2023-04-16T20:47:11.138Z,55.20
2023-04-16T20:49:40.578Z,54.30
2023-04-16T20:52:09.077Z,58.60
2023-04-16T20:54:37.937Z,53.30
2023-04-16T20:57:06.717Z,56.40
2023-04-16T20:59:37.172Z,56.90
2023-04-16T21:02:07.044Z,53.20
2023-04-16T21:04:35.634Z,58.50
2023-04-16T21:07:04.516Z,62.20
2023-04-16T21:09:33.026Z,54.90
2023-04-16T21:12:04.538Z,54.90
2023-04-16T21:14:33.152Z,50.60
2023-04-16T21:17:01.882Z,51.10
2023-04-16T21:20:20.904Z,61.10
2023-04-16T21:22:57.106Z,60.50
2023-04-16T21:25:26.060Z,60.70
2023-04-16T21:28:35.095Z,70.60
2023-04-16T21:31:03.689Z,64.00
2023-04-16T21:36:49.326Z,57.30
2023-04-16T21:39:56.358Z,63.40
2023-04-16T21:45:11.710Z,58.90
2023-04-16T21:47:40.793Z,60.40
2023-04-16T21:50:28.694Z,67.00
2023-04-16T21:53:23.885Z,70.60
2023-04-16T21:55:52.468Z,68.80
2023-04-16T21:58:36.120Z,65.60
2023-04-16T22:01:09.556Z,61.80
2023-04-16T22:04:26.625Z,63.50
2023-04-16T22:07:17.180Z,69.20
2023-04-16T22:10:04.478Z,71.40
2023-04-16T22:13:02.034Z,64.70
2023-04-16T22:15:56.277Z,66.50
2023-04-16T22:18:50.285Z,73.60
2023-04-16T22:21:18.966Z,65.90
2023-04-16T22:24:18.055Z,65.30
2023-04-16T22:26:58.213Z,68.30
2023-04-16T22:42:48.759Z,66.10
2023-04-16T22:45:34.909Z,70.30
2023-04-16T22:48:27.340Z,55.60
2023-04-16T22:50:56.432Z,52.90
2023-04-16T22:53:52.153Z,59.80
2023-04-16T22:57:45.536Z,53.60
2023-04-16T23:00:46.477Z,56.80
2023-04-16T23:04:07.532Z,50.90
2023-04-16T23:08:24.418Z,53.80
2023-04-16T23:12:03.128Z,51.90
2023-04-16T23:19:59.080Z,54.40
2023-04-16T23:23:20.600Z,50.80
2023-04-16T23:25:56.766Z,45.40
2023-04-16T23:28:30.575Z,55.00
2023-04-16T23:31:43.219Z,56.70
2023-04-16T23:37:57.664Z,50.80
2023-04-16T23:41:27.242Z,55.60
2023-04-16T23:44:53.279Z,57.40
2023-04-16T23:48:14.696Z,52.10
2023-04-16T23:51:39.763Z,54.40
2023-04-16T23:55:12.878Z,57.30
2023-04-16T23:58:31.073Z,58.30
